sensor_id;sensor_type;location;lat;lon;timestamp;P1;durP1;ratioP1;P2;durP2;ratioP2
22024;SDS011;11176;51.448;6.650;2023-05-10T00:00:25;14.27;;;10.93;;
22024;SDS011;11176;51.448;6.650;2023-05-10T00:02:52;16.83;;;10.77;;
22024;SDS011;11176;51.448;6.650;2023-05-10T00:05:19;15.85;;;11.07;;
22024;SDS011;11176;51.448;6.650;2023-05-10T00:07:45;14.23;;;10.57;;
22024;SDS011;11176;51.448;6.650;2023-05-10T00:10:12;14.75;;;10.18;;
22024;SDS011;11176;51.448;6.650;2023-05-10T00:12:38;14.82;;;9.43;;
22024;SDS011;11176;51.448;6.650;2023-05-10T00:15:05;13.40;;;9.90;;
22024;SDS011;11176;51.448;6.650;2023-05-10T00:17:32;13.43;;;10.32;;
22024;SDS011;11176;51.448;6.650;2023-05-10T00:19:59;12.73;;;8.85;;
22024;SDS011;11176;51.448;6.650;2023-05-10T00:22:25;14.85;;;10.98;;
22024;SDS011;11176;51.448;6.650;2023-05-10T00:24:52;17.02;;;11.07;;
22024;SDS011;11176;51.448;6.650;2023-05-10T00:27:18;18.48;;;11.65;;
22024;SDS011;11176;51.448;6.650;2023-05-10T00:29:45;17.50;;;12.50;;
22024;SDS011;11176;51.448;6.650;2023-05-10T00:32:11;17.55;;;12.32;;
22024;SDS011;11176;51.448;6.650;2023-05-10T00:34:40;16.83;;;11.90;;
22024;SDS011;11176;51.448;6.650;2023-05-10T00:37:06;17.10;;;12.88;;
22024;SDS011;11176;51.448;6.650;2023-05-10T00:39:33;15.77;;;11.63;;
22024;SDS011;11176;51.448;6.650;2023-05-10T00:41:59;16.50;;;11.63;;
22024;SDS011;11176;51.448;6.650;2023-05-10T00:44:26;16.05;;;11.98;;
22024;SDS011;11176;51.448;6.650;2023-05-10T00:46:53;14.90;;;11.43;;
22024;SDS011;11176;51.448;6.650;2023-05-10T00:49:20;17.52;;;12.98;;
22024;SDS011;11176;51.448;6.650;2023-05-10T00:51:47;19.75;;;13.43;;
22024;SDS011;11176;51.448;6.650;2023-05-10T00:54:13;17.35;;;13.13;;
22024;SDS011;11176;51.448;6.650;2023-05-10T00:56:41;18.30;;;13.00;;
22024;SDS011;11176;51.448;6.650;2023-05-10T00:59:08;16.58;;;12.15;;
22024;SDS011;11176;51.448;6.650;2023-05-10T01:01:35;16.00;;;11.77;;
22024;SDS011;11176;51.448;6.650;2023-05-10T01:04:02;17.05;;;11.80;;
22024;SDS011;11176;51.448;6.650;2023-05-10T01:06:29;17.48;;;11.63;;
22024;SDS011;11176;51.448;6.650;2023-05-10T01:08:55;18.15;;;13.30;;
22024;SDS011;11176;51.448;6.650;2023-05-10T01:11:22;17.42;;;13.40;;
22024;SDS011;11176;51.448;6.650;2023-05-10T01:13:50;19.25;;;13.02;;
22024;SDS011;11176;51.448;6.650;2023-05-10T01:18:49;22.17;;;15.63;;
22024;SDS011;11176;51.448;6.650;2023-05-10T01:29:48;21.20;;;14.27;;
22024;SDS011;11176;51.448;6.650;2023-05-10T01:35:10;23.50;;;15.20;;
22024;SDS011;11176;51.448;6.650;2023-05-10T01:38:09;22.92;;;15.52;;
22024;SDS011;11176;51.448;6.650;2023-05-10T01:46:20;23.83;;;15.98;;
22024;SDS011;11176;51.448;6.650;2023-05-10T01:48:55;21.00;;;14.82;;
22024;SDS011;11176;51.448;6.650;2023-05-10T01:51:26;25.60;;;17.25;;
22024;SDS011;11176;51.448;6.650;2023-05-10T01:53:59;26.00;;;17.30;;
22024;SDS011;11176;51.448;6.650;2023-05-10T01:56:29;25.40;;;18.25;;
22024;SDS011;11176;51.448;6.650;2023-05-10T01:58:58;26.42;;;18.27;;
22024;SDS011;11176;51.448;6.650;2023-05-10T02:01:27;23.60;;;16.98;;
22024;SDS011;11176;51.448;6.650;2023-05-10T02:03:54;24.88;;;17.20;;
22024;SDS011;11176;51.448;6.650;2023-05-10T02:06:22;27.85;;;17.95;;
22024;SDS011;11176;51.448;6.650;2023-05-10T02:08:51;24.17;;;15.80;;
22024;SDS011;11176;51.448;6.650;2023-05-10T02:11:19;24.05;;;17.13;;
22024;SDS011;11176;51.448;6.650;2023-05-10T02:13:48;24.60;;;16.45;;
22024;SDS011;11176;51.448;6.650;2023-05-10T02:16:16;20.58;;;14.73;;
22024;SDS011;11176;51.448;6.650;2023-05-10T02:18:47;20.55;;;15.27;;
22024;SDS011;11176;51.448;6.650;2023-05-10T02:21:14;27.90;;;16.92;;
22024;SDS011;11176;51.448;6.650;2023-05-10T02:23:42;24.75;;;16.00;;
22024;SDS011;11176;51.448;6.650;2023-05-10T02:26:09;22.58;;;15.80;;
22024;SDS011;11176;51.448;6.650;2023-05-10T02:28:38;24.08;;;16.02;;
22024;SDS011;11176;51.448;6.650;2023-05-10T02:31:05;27.40;;;16.98;;
22024;SDS011;11176;51.448;6.650;2023-05-10T02:33:33;23.95;;;15.25;;
22024;SDS011;11176;51.448;6.650;2023-05-10T02:36:01;24.70;;;15.70;;
22024;SDS011;11176;51.448;6.650;2023-05-10T02:38:29;23.50;;;16.30;;
22024;SDS011;11176;51.448;6.650;2023-05-10T02:40:57;24.67;;;15.85;;
22024;SDS011;11176;51.448;6.650;2023-05-10T02:43:27;24.05;;;16.05;;
22024;SDS011;11176;51.448;6.650;2023-05-10T02:45:56;22.15;;;15.77;;
22024;SDS011;11176;51.448;6.650;2023-05-10T02:48:23;23.02;;;15.55;;
22024;SDS011;11176;51.448;6.650;2023-05-10T02:50:50;22.95;;;16.30;;
22024;SDS011;11176;51.448;6.650;2023-05-10T02:53:18;20.73;;;14.63;;
22024;SDS011;11176;51.448;6.650;2023-05-10T02:55:52;23.27;;;15.95;;
22024;SDS011;11176;51.448;6.650;2023-05-10T02:58:23;22.63;;;14.43;;
22024;SDS011;11176;51.448;6.650;2023-05-10T03:00:49;21.00;;;15.10;;
22024;SDS011;11176;51.448;6.650;2023-05-10T03:03:16;21.83;;;14.65;;
22024;SDS011;11176;51.448;6.650;2023-05-10T03:05:43;26.95;;;16.25;;
22024;SDS011;11176;51.448;6.650;2023-05-10T03:08:09;23.08;;;15.15;;
22024;SDS011;11176;51.448;6.650;2023-05-10T03:10:38;19.75;;;13.68;;
22024;SDS011;11176;51.448;6.650;2023-05-10T03:13:16;20.50;;;13.73;;
22024;SDS011;11176;51.448;6.650;2023-05-10T03:15:58;23.40;;;14.05;;
22024;SDS011;11176;51.448;6.650;2023-05-10T03:21:17;16.55;;;12.38;;
22024;SDS011;11176;51.448;6.650;2023-05-10T03:23:48;20.27;;;13.80;;
22024;SDS011;11176;51.448;6.650;2023-05-10T03:26:18;16.80;;;12.20;;
22024;SDS011;11176;51.448;6.650;2023-05-10T03:28:49;18.50;;;12.68;;
22024;SDS011;11176;51.448;6.650;2023-05-10T03:31:16;24.10;;;14.80;;
22024;SDS011;11176;51.448;6.650;2023-05-10T03:33:50;17.77;;;12.57;;
22024;SDS011;11176;51.448;6.650;2023-05-10T03:36:22;18.10;;;12.65;;
22024;SDS011;11176;51.448;6.650;2023-05-10T03:38:50;19.33;;;12.52;;
22024;SDS011;11176;51.448;6.650;2023-05-10T03:41:16;19.95;;;13.48;;
22024;SDS011;11176;51.448;6.650;2023-05-10T03:43:43;19.05;;;12.52;;
22024;SDS011;11176;51.448;6.650;2023-05-10T03:46:09;20.38;;;14.23;;
22024;SDS011;11176;51.448;6.650;2023-05-10T03:48:36;22.23;;;14.57;;
22024;SDS011;11176;51.448;6.650;2023-05-10T03:51:02;21.50;;;13.30;;
22024;SDS011;11176;51.448;6.650;2023-05-10T03:53:29;26.15;;;15.30;;
22024;SDS011;11176;51.448;6.650;2023-05-10T03:55:55;23.55;;;15.43;;
22024;SDS011;11176;51.448;6.650;2023-05-10T03:58:23;21.08;;;13.73;;
22024;SDS011;11176;51.448;6.650;2023-05-10T04:00:50;25.80;;;15.60;;
22024;SDS011;11176;51.448;6.650;2023-05-10T04:03:17;23.20;;;15.15;;
22024;SDS011;11176;51.448;6.650;2023-05-10T04:05:44;22.17;;;14.48;;
22024;SDS011;11176;51.448;6.650;2023-05-10T04:08:11;26.13;;;16.45;;
22024;SDS011;11176;51.448;6.650;2023-05-10T04:10:37;24.25;;;15.73;;
22024;SDS011;11176;51.448;6.650;2023-05-10T04:13:04;21.10;;;14.43;;
22024;SDS011;11176;51.448;6.650;2023-05-10T04:15:30;24.65;;;16.67;;
22024;SDS011;11176;51.448;6.650;2023-05-10T04:17:56;25.63;;;16.55;;
22024;SDS011;11176;51.448;6.650;2023-05-10T04:20:23;22.02;;;15.55;;
22024;SDS011;11176;51.448;6.650;2023-05-10T04:22:50;28.08;;;18.85;;
22024;SDS011;11176;51.448;6.650;2023-05-10T04:25:16;30.25;;;18.90;;
22024;SDS011;11176;51.448;6.650;2023-05-10T04:27:43;30.42;;;18.92;;
22024;SDS011;11176;51.448;6.650;2023-05-10T04:30:09;30.52;;;19.10;;
22024;SDS011;11176;51.448;6.650;2023-05-10T04:32:37;34.75;;;21.45;;
22024;SDS011;11176;51.448;6.650;2023-05-10T04:35:03;30.73;;;20.02;;
22024;SDS011;11176;51.448;6.650;2023-05-10T04:37:31;34.90;;;21.17;;
22024;SDS011;11176;51.448;6.650;2023-05-10T04:39:57;29.63;;;20.15;;
22024;SDS011;11176;51.448;6.650;2023-05-10T04:42:25;31.42;;;20.30;;
22024;SDS011;11176;51.448;6.650;2023-05-10T04:44:52;32.42;;;19.92;;
22024;SDS011;11176;51.448;6.650;2023-05-10T04:47:19;31.52;;;20.20;;
22024;SDS011;11176;51.448;6.650;2023-05-10T04:49:45;40.25;;;23.23;;
22024;SDS011;11176;51.448;6.650;2023-05-10T04:52:12;37.42;;;22.77;;
22024;SDS011;11176;51.448;6.650;2023-05-10T04:54:38;37.00;;;24.70;;
22024;SDS011;11176;51.448;6.650;2023-05-10T04:57:05;40.55;;;25.48;;
22024;SDS011;11176;51.448;6.650;2023-05-10T04:59:31;38.08;;;23.58;;
22024;SDS011;11176;51.448;6.650;2023-05-10T05:01:58;41.20;;;24.73;;
22024;SDS011;11176;51.448;6.650;2023-05-10T05:04:24;36.55;;;22.92;;
22024;SDS011;11176;51.448;6.650;2023-05-10T05:06:51;44.00;;;27.25;;
22024;SDS011;11176;51.448;6.650;2023-05-10T05:09:19;44.08;;;27.08;;
22024;SDS011;11176;51.448;6.650;2023-05-10T05:11:45;41.85;;;26.63;;
22024;SDS011;11176;51.448;6.650;2023-05-10T05:14:12;45.50;;;26.38;;
22024;SDS011;11176;51.448;6.650;2023-05-10T05:16:38;42.58;;;27.08;;
22024;SDS011;11176;51.448;6.650;2023-05-10T05:19:05;42.58;;;25.05;;
22024;SDS011;11176;51.448;6.650;2023-05-10T05:21:32;43.38;;;27.67;;
22024;SDS011;11176;51.448;6.650;2023-05-10T05:23:59;41.70;;;25.73;;
22024;SDS011;11176;51.448;6.650;2023-05-10T05:26:26;45.83;;;28.05;;
22024;SDS011;11176;51.448;6.650;2023-05-10T05:28:52;48.25;;;29.83;;
22024;SDS011;11176;51.448;6.650;2023-05-10T05:31:20;46.60;;;28.52;;
22024;SDS011;11176;51.448;6.650;2023-05-10T05:33:47;43.22;;;27.55;;
22024;SDS011;11176;51.448;6.650;2023-05-10T05:36:13;50.63;;;29.33;;
22024;SDS011;11176;51.448;6.650;2023-05-10T05:38:40;44.83;;;28.90;;
22024;SDS011;11176;51.448;6.650;2023-05-10T05:41:06;51.45;;;29.73;;
22024;SDS011;11176;51.448;6.650;2023-05-10T05:43:33;46.47;;;27.85;;
22024;SDS011;11176;51.448;6.650;2023-05-10T05:46:03;50.67;;;30.33;;
22024;SDS011;11176;51.448;6.650;2023-05-10T05:48:30;48.53;;;29.30;;
22024;SDS011;11176;51.448;6.650;2023-05-10T05:50:56;45.92;;;28.42;;
22024;SDS011;11176;51.448;6.650;2023-05-10T05:53:23;48.50;;;28.15;;
22024;SDS011;11176;51.448;6.650;2023-05-10T05:55:51;45.05;;;27.25;;
22024;SDS011;11176;51.448;6.650;2023-05-10T05:58:19;45.85;;;28.67;;
22024;SDS011;11176;51.448;6.650;2023-05-10T06:00:46;45.45;;;28.55;;
22024;SDS011;11176;51.448;6.650;2023-05-10T06:03:12;45.92;;;28.27;;
22024;SDS011;11176;51.448;6.650;2023-05-10T06:05:38;41.42;;;25.88;;
22024;SDS011;11176;51.448;6.650;2023-05-10T06:08:05;41.20;;;26.45;;
22024;SDS011;11176;51.448;6.650;2023-05-10T06:10:32;45.40;;;27.48;;
22024;SDS011;11176;51.448;6.650;2023-05-10T06:12:58;46.63;;;27.73;;
22024;SDS011;11176;51.448;6.650;2023-05-10T06:15:25;49.95;;;28.95;;
22024;SDS011;11176;51.448;6.650;2023-05-10T06:17:52;54.35;;;30.45;;
22024;SDS011;11176;51.448;6.650;2023-05-10T06:20:18;46.53;;;28.00;;
22024;SDS011;11176;51.448;6.650;2023-05-10T06:22:45;46.38;;;28.50;;
22024;SDS011;11176;51.448;6.650;2023-05-10T06:25:11;47.83;;;28.23;;
22024;SDS011;11176;51.448;6.650;2023-05-10T06:27:38;46.58;;;28.10;;
22024;SDS011;11176;51.448;6.650;2023-05-10T06:30:05;47.25;;;27.80;;
22024;SDS011;11176;51.448;6.650;2023-05-10T06:32:38;49.53;;;28.70;;
22024;SDS011;11176;51.448;6.650;2023-05-10T06:35:05;54.92;;;30.70;;
22024;SDS011;11176;51.448;6.650;2023-05-10T06:37:32;52.08;;;30.48;;
22024;SDS011;11176;51.448;6.650;2023-05-10T06:39:58;57.67;;;31.05;;
22024;SDS011;11176;51.448;6.650;2023-05-10T06:42:25;50.63;;;28.98;;
22024;SDS011;11176;51.448;6.650;2023-05-10T06:44:53;51.20;;;30.20;;
22024;SDS011;11176;51.448;6.650;2023-05-10T06:47:19;48.05;;;27.70;;
22024;SDS011;11176;51.448;6.650;2023-05-10T06:49:45;45.95;;;28.10;;
22024;SDS011;11176;51.448;6.650;2023-05-10T06:52:12;48.45;;;28.73;;
22024;SDS011;11176;51.448;6.650;2023-05-10T06:54:39;49.10;;;28.08;;
22024;SDS011;11176;51.448;6.650;2023-05-10T06:57:06;53.15;;;28.33;;
22024;SDS011;11176;51.448;6.650;2023-05-10T06:59:45;44.95;;;26.13;;
22024;SDS011;11176;51.448;6.650;2023-05-10T07:02:11;51.25;;;28.52;;
22024;SDS011;11176;51.448;6.650;2023-05-10T07:04:37;53.83;;;30.23;;
22024;SDS011;11176;51.448;6.650;2023-05-10T07:07:04;51.30;;;29.45;;
22024;SDS011;11176;51.448;6.650;2023-05-10T07:09:31;50.22;;;28.45;;
22024;SDS011;11176;51.448;6.650;2023-05-10T07:11:58;46.22;;;27.25;;
22024;SDS011;11176;51.448;6.650;2023-05-10T07:14:24;46.65;;;27.02;;
22024;SDS011;11176;51.448;6.650;2023-05-10T07:16:51;46.17;;;26.50;;
22024;SDS011;11176;51.448;6.650;2023-05-10T07:19:17;50.67;;;27.27;;
22024;SDS011;11176;51.448;6.650;2023-05-10T07:21:44;53.85;;;29.92;;
22024;SDS011;11176;51.448;6.650;2023-05-10T07:24:11;50.70;;;27.85;;
22024;SDS011;11176;51.448;6.650;2023-05-10T07:26:37;46.63;;;26.98;;
22024;SDS011;11176;51.448;6.650;2023-05-10T07:29:04;49.10;;;28.02;;
22024;SDS011;11176;51.448;6.650;2023-05-10T07:31:30;54.58;;;29.25;;
22024;SDS011;11176;51.448;6.650;2023-05-10T07:33:56;52.47;;;29.10;;
22024;SDS011;11176;51.448;6.650;2023-05-10T07:36:23;56.28;;;29.77;;
22024;SDS011;11176;51.448;6.650;2023-05-10T07:38:49;58.10;;;30.60;;
22024;SDS011;11176;51.448;6.650;2023-05-10T07:41:16;55.72;;;31.08;;
22024;SDS011;11176;51.448;6.650;2023-05-10T07:43:42;55.95;;;29.58;;
22024;SDS011;11176;51.448;6.650;2023-05-10T07:46:09;54.25;;;30.13;;
22024;SDS011;11176;51.448;6.650;2023-05-10T07:48:36;53.67;;;28.13;;
22024;SDS011;11176;51.448;6.650;2023-05-10T07:51:03;53.75;;;28.92;;
22024;SDS011;11176;51.448;6.650;2023-05-10T07:53:29;54.47;;;28.52;;
22024;SDS011;11176;51.448;6.650;2023-05-10T07:55:57;56.00;;;30.70;;
22024;SDS011;11176;51.448;6.650;2023-05-10T07:58:24;54.50;;;29.00;;
22024;SDS011;11176;51.448;6.650;2023-05-10T08:00:52;51.50;;;27.52;;
22024;SDS011;11176;51.448;6.650;2023-05-10T08:03:18;59.20;;;30.48;;
22024;SDS011;11176;51.448;6.650;2023-05-10T08:05:45;52.83;;;28.90;;
22024;SDS011;11176;51.448;6.650;2023-05-10T08:08:11;50.28;;;27.25;;
22024;SDS011;11176;51.448;6.650;2023-05-10T08:10:38;40.03;;;25.88;;
22024;SDS011;11176;51.448;6.650;2023-05-10T08:13:04;44.67;;;25.95;;
22024;SDS011;11176;51.448;6.650;2023-05-10T08:15:31;37.80;;;23.70;;
22024;SDS011;11176;51.448;6.650;2023-05-10T08:17:58;41.22;;;24.42;;
22024;SDS011;11176;51.448;6.650;2023-05-10T08:20:24;40.65;;;24.95;;
22024;SDS011;11176;51.448;6.650;2023-05-10T08:22:50;38.97;;;24.38;;
22024;SDS011;11176;51.448;6.650;2023-05-10T08:25:17;44.22;;;25.45;;
22024;SDS011;11176;51.448;6.650;2023-05-10T08:27:45;44.83;;;25.55;;
22024;SDS011;11176;51.448;6.650;2023-05-10T08:30:11;41.70;;;25.05;;
22024;SDS011;11176;51.448;6.650;2023-05-10T08:32:39;42.92;;;24.58;;
22024;SDS011;11176;51.448;6.650;2023-05-10T08:35:05;42.55;;;24.77;;
22024;SDS011;11176;51.448;6.650;2023-05-10T08:37:32;39.75;;;24.00;;
22024;SDS011;11176;51.448;6.650;2023-05-10T08:39:59;39.55;;;24.48;;
22024;SDS011;11176;51.448;6.650;2023-05-10T08:42:26;39.33;;;22.95;;
22024;SDS011;11176;51.448;6.650;2023-05-10T08:44:57;39.80;;;24.20;;
22024;SDS011;11176;51.448;6.650;2023-05-10T08:47:25;35.03;;;21.85;;
22024;SDS011;11176;51.448;6.650;2023-05-10T08:49:52;34.35;;;21.45;;
22024;SDS011;11176;51.448;6.650;2023-05-10T08:52:20;34.35;;;21.20;;
22024;SDS011;11176;51.448;6.650;2023-05-10T08:54:49;31.73;;;19.65;;
22024;SDS011;11176;51.448;6.650;2023-05-10T08:57:16;26.67;;;17.02;;
22024;SDS011;11176;51.448;6.650;2023-05-10T08:59:43;23.17;;;16.00;;
22024;SDS011;11176;51.448;6.650;2023-05-10T09:02:09;24.08;;;15.35;;
22024;SDS011;11176;51.448;6.650;2023-05-10T09:04:37;22.33;;;14.18;;
22024;SDS011;11176;51.448;6.650;2023-05-10T09:07:06;19.52;;;14.07;;
22024;SDS011;11176;51.448;6.650;2023-05-10T09:09:33;22.20;;;14.68;;
22024;SDS011;11176;51.448;6.650;2023-05-10T09:11:59;23.92;;;15.50;;
22024;SDS011;11176;51.448;6.650;2023-05-10T09:14:26;19.77;;;13.93;;
22024;SDS011;11176;51.448;6.650;2023-05-10T09:16:53;23.80;;;15.50;;
22024;SDS011;11176;51.448;6.650;2023-05-10T09:19:21;21.92;;;14.38;;
22024;SDS011;11176;51.448;6.650;2023-05-10T09:21:48;22.23;;;16.02;;
22024;SDS011;11176;51.448;6.650;2023-05-10T09:24:14;24.70;;;16.38;;
22024;SDS011;11176;51.448;6.650;2023-05-10T09:26:47;20.48;;;15.07;;
22024;SDS011;11176;51.448;6.650;2023-05-10T09:29:16;24.55;;;15.27;;
22024;SDS011;11176;51.448;6.650;2023-05-10T09:31:50;24.23;;;15.63;;
22024;SDS011;11176;51.448;6.650;2023-05-10T09:34:18;21.10;;;15.70;;
22024;SDS011;11176;51.448;6.650;2023-05-10T09:36:57;27.42;;;17.20;;
22024;SDS011;11176;51.448;6.650;2023-05-10T09:39:33;23.85;;;15.85;;
22024;SDS011;11176;51.448;6.650;2023-05-10T09:42:04;20.92;;;15.40;;
22024;SDS011;11176;51.448;6.650;2023-05-10T09:44:33;24.43;;;17.30;;
22024;SDS011;11176;51.448;6.650;2023-05-10T09:47:00;22.52;;;15.27;;
22024;SDS011;11176;51.448;6.650;2023-05-10T09:49:27;22.75;;;15.93;;
22024;SDS011;11176;51.448;6.650;2023-05-10T09:52:01;25.38;;;15.20;;
22024;SDS011;11176;51.448;6.650;2023-05-10T09:54:29;21.08;;;14.45;;
22024;SDS011;11176;51.448;6.650;2023-05-10T09:56:55;23.25;;;14.80;;
22024;SDS011;11176;51.448;6.650;2023-05-10T09:59:24;19.73;;;13.30;;
22024;SDS011;11176;51.448;6.650;2023-05-10T10:01:52;23.33;;;15.02;;
22024;SDS011;11176;51.448;6.650;2023-05-10T10:04:21;21.08;;;13.90;;
22024;SDS011;11176;51.448;6.650;2023-05-10T10:06:58;21.02;;;15.32;;
22024;SDS011;11176;51.448;6.650;2023-05-10T10:09:27;22.73;;;15.43;;
22024;SDS011;11176;51.448;6.650;2023-05-10T10:11:54;21.02;;;14.65;;
22024;SDS011;11176;51.448;6.650;2023-05-10T10:14:21;19.27;;;14.80;;
22024;SDS011;11176;51.448;6.650;2023-05-10T10:16:51;20.90;;;14.70;;
22024;SDS011;11176;51.448;6.650;2023-05-10T10:19:33;21.88;;;15.48;;
22024;SDS011;11176;51.448;6.650;2023-05-10T10:22:02;26.83;;;17.13;;
22024;SDS011;11176;51.448;6.650;2023-05-10T10:24:28;23.30;;;17.05;;
22024;SDS011;11176;51.448;6.650;2023-05-10T10:26:55;22.38;;;15.23;;
22024;SDS011;11176;51.448;6.650;2023-05-10T10:29:34;23.35;;;15.50;;
22024;SDS011;11176;51.448;6.650;2023-05-10T10:32:25;25.50;;;17.92;;
22024;SDS011;11176;51.448;6.650;2023-05-10T10:34:56;27.23;;;16.85;;
22024;SDS011;11176;51.448;6.650;2023-05-10T10:37:23;24.10;;;16.42;;
22024;SDS011;11176;51.448;6.650;2023-05-10T10:40:23;20.05;;;14.25;;
22024;SDS011;11176;51.448;6.650;2023-05-10T10:42:52;26.38;;;16.77;;
22024;SDS011;11176;51.448;6.650;2023-05-10T10:45:20;22.13;;;15.10;;
22024;SDS011;11176;51.448;6.650;2023-05-10T10:47:47;24.35;;;16.75;;
22024;SDS011;11176;51.448;6.650;2023-05-10T10:50:14;22.15;;;15.13;;
22024;SDS011;11176;51.448;6.650;2023-05-10T10:52:45;26.58;;;17.38;;
22024;SDS011;11176;51.448;6.650;2023-05-10T10:55:13;21.83;;;15.93;;
22024;SDS011;11176;51.448;6.650;2023-05-10T10:57:54;20.67;;;15.15;;
22024;SDS011;11176;51.448;6.650;2023-05-10T11:00:30;20.92;;;16.08;;
22024;SDS011;11176;51.448;6.650;2023-05-10T11:03:08;20.02;;;14.93;;
22024;SDS011;11176;51.448;6.650;2023-05-10T11:05:46;20.98;;;14.30;;
22024;SDS011;11176;51.448;6.650;2023-05-10T11:08:26;21.80;;;14.40;;
22024;SDS011;11176;51.448;6.650;2023-05-10T11:11:04;19.38;;;12.95;;
22024;SDS011;11176;51.448;6.650;2023-05-10T11:13:42;16.38;;;12.80;;
22024;SDS011;11176;51.448;6.650;2023-05-10T11:16:15;20.17;;;13.93;;
22024;SDS011;11176;51.448;6.650;2023-05-10T11:18:57;21.42;;;14.63;;
22024;SDS011;11176;51.448;6.650;2023-05-10T11:21:26;16.45;;;11.50;;
22024;SDS011;11176;51.448;6.650;2023-05-10T11:23:53;22.95;;;15.15;;
22024;SDS011;11176;51.448;6.650;2023-05-10T11:26:24;19.50;;;13.55;;
22024;SDS011;11176;51.448;6.650;2023-05-10T11:28:53;17.83;;;12.70;;
22024;SDS011;11176;51.448;6.650;2023-05-10T11:31:24;18.70;;;13.23;;
22024;SDS011;11176;51.448;6.650;2023-05-10T11:33:57;15.77;;;11.80;;
22024;SDS011;11176;51.448;6.650;2023-05-10T11:36:25;11.52;;;8.82;;
22024;SDS011;11176;51.448;6.650;2023-05-10T11:38:58;14.45;;;10.15;;
22024;SDS011;11176;51.448;6.650;2023-05-10T11:41:25;11.48;;;8.43;;
22024;SDS011;11176;51.448;6.650;2023-05-10T11:43:54;13.43;;;8.10;;
22024;SDS011;11176;51.448;6.650;2023-05-10T11:46:22;12.45;;;8.73;;
22024;SDS011;11176;51.448;6.650;2023-05-10T11:48:51;14.20;;;9.00;;
22024;SDS011;11176;51.448;6.650;2023-05-10T11:51:20;13.02;;;9.00;;
22024;SDS011;11176;51.448;6.650;2023-05-10T11:53:48;10.77;;;6.55;;
22024;SDS011;11176;51.448;6.650;2023-05-10T11:56:16;8.60;;;6.50;;
22024;SDS011;11176;51.448;6.650;2023-05-10T11:58:43;12.40;;;6.75;;
22024;SDS011;11176;51.448;6.650;2023-05-10T12:01:10;10.10;;;7.80;;
22024;SDS011;11176;51.448;6.650;2023-05-10T12:03:37;10.02;;;7.40;;
22024;SDS011;11176;51.448;6.650;2023-05-10T12:06:04;9.63;;;7.40;;
22024;SDS011;11176;51.448;6.650;2023-05-10T12:08:30;9.70;;;6.95;;
22024;SDS011;11176;51.448;6.650;2023-05-10T12:11:04;10.77;;;8.00;;
22024;SDS011;11176;51.448;6.650;2023-05-10T12:13:37;10.73;;;7.75;;
22024;SDS011;11176;51.448;6.650;2023-05-10T12:16:40;12.25;;;7.82;;
22024;SDS011;11176;51.448;6.650;2023-05-10T12:18:59;11.38;;;7.93;;
22024;SDS011;11176;51.448;6.650;2023-05-10T12:21:30;8.93;;;7.18;;
22024;SDS011;11176;51.448;6.650;2023-05-10T12:24:01;10.05;;;7.63;;
22024;SDS011;11176;51.448;6.650;2023-05-10T12:26:29;11.23;;;7.90;;
22024;SDS011;11176;51.448;6.650;2023-05-10T12:29:12;11.32;;;7.18;;
22024;SDS011;11176;51.448;6.650;2023-05-10T12:31:50;10.85;;;7.25;;
22024;SDS011;11176;51.448;6.650;2023-05-10T12:34:30;8.88;;;6.63;;
22024;SDS011;11176;51.448;6.650;2023-05-10T12:36:59;9.57;;;7.45;;
22024;SDS011;11176;51.448;6.650;2023-05-10T12:39:26;13.48;;;8.15;;
22024;SDS011;11176;51.448;6.650;2023-05-10T12:42:04;11.00;;;6.57;;
22024;SDS011;11176;51.448;6.650;2023-05-10T12:44:31;10.18;;;7.38;;
22024;SDS011;11176;51.448;6.650;2023-05-10T12:46:57;10.60;;;6.80;;
22024;SDS011;11176;51.448;6.650;2023-05-10T12:49:23;10.88;;;7.05;;
22024;SDS011;11176;51.448;6.650;2023-05-10T12:51:50;8.90;;;5.60;;
22024;SDS011;11176;51.448;6.650;2023-05-10T12:54:16;9.25;;;5.60;;
22024;SDS011;11176;51.448;6.650;2023-05-10T12:56:43;9.15;;;5.45;;
22024;SDS011;11176;51.448;6.650;2023-05-10T12:59:10;7.45;;;5.47;;
22024;SDS011;11176;51.448;6.650;2023-05-10T13:01:36;8.65;;;5.95;;
22024;SDS011;11176;51.448;6.650;2023-05-10T13:04:03;8.55;;;5.10;;
22024;SDS011;11176;51.448;6.650;2023-05-10T13:06:30;8.23;;;5.65;;
22024;SDS011;11176;51.448;6.650;2023-05-10T13:08:56;11.18;;;5.43;;
22024;SDS011;11176;51.448;6.650;2023-05-10T13:11:23;8.35;;;4.70;;
22024;SDS011;11176;51.448;6.650;2023-05-10T13:13:50;9.30;;;4.93;;
22024;SDS011;11176;51.448;6.650;2023-05-10T13:16:17;5.95;;;4.30;;
22024;SDS011;11176;51.448;6.650;2023-05-10T13:18:44;6.50;;;3.72;;
22024;SDS011;11176;51.448;6.650;2023-05-10T13:21:10;6.32;;;3.97;;
22024;SDS011;11176;51.448;6.650;2023-05-10T13:23:37;7.93;;;5.00;;
22024;SDS011;11176;51.448;6.650;2023-05-10T13:26:03;6.03;;;4.65;;
22024;SDS011;11176;51.448;6.650;2023-05-10T13:28:30;8.30;;;4.78;;
22024;SDS011;11176;51.448;6.650;2023-05-10T13:30:56;7.93;;;5.35;;
22024;SDS011;11176;51.448;6.650;2023-05-10T13:33:23;8.80;;;5.93;;
22024;SDS011;11176;51.448;6.650;2023-05-10T13:35:49;8.75;;;6.53;;
22024;SDS011;11176;51.448;6.650;2023-05-10T13:38:16;8.07;;;6.00;;
22024;SDS011;11176;51.448;6.650;2023-05-10T13:40:42;9.52;;;6.00;;
22024;SDS011;11176;51.448;6.650;2023-05-10T13:43:08;9.13;;;6.78;;
22024;SDS011;11176;51.448;6.650;2023-05-10T13:45:35;7.60;;;6.22;;
22024;SDS011;11176;51.448;6.650;2023-05-10T13:48:02;8.35;;;6.07;;
22024;SDS011;11176;51.448;6.650;2023-05-10T13:50:28;12.13;;;8.10;;
22024;SDS011;11176;51.448;6.650;2023-05-10T13:52:55;10.07;;;6.53;;
22024;SDS011;11176;51.448;6.650;2023-05-10T13:55:21;10.10;;;7.60;;
22024;SDS011;11176;51.448;6.650;2023-05-10T13:57:48;9.13;;;6.60;;
22024;SDS011;11176;51.448;6.650;2023-05-10T14:00:14;7.93;;;6.30;;
22024;SDS011;11176;51.448;6.650;2023-05-10T14:02:42;9.20;;;7.70;;
22024;SDS011;11176;51.448;6.650;2023-05-10T14:05:08;8.95;;;6.32;;
22024;SDS011;11176;51.448;6.650;2023-05-10T14:07:36;8.32;;;5.68;;
22024;SDS011;11176;51.448;6.650;2023-05-10T14:10:03;7.75;;;5.28;;
22024;SDS011;11176;51.448;6.650;2023-05-10T14:12:29;7.95;;;4.80;;
22024;SDS011;11176;51.448;6.650;2023-05-10T14:14:56;4.90;;;3.53;;
22024;SDS011;11176;51.448;6.650;2023-05-10T14:17:24;7.60;;;5.05;;
22024;SDS011;11176;51.448;6.650;2023-05-10T14:19:50;7.93;;;5.78;;
22024;SDS011;11176;51.448;6.650;2023-05-10T14:22:16;9.82;;;6.90;;
22024;SDS011;11176;51.448;6.650;2023-05-10T14:24:44;6.85;;;5.80;;
22024;SDS011;11176;51.448;6.650;2023-05-10T14:27:12;10.45;;;7.50;;
22024;SDS011;11176;51.448;6.650;2023-05-10T14:29:39;9.75;;;7.30;;
22024;SDS011;11176;51.448;6.650;2023-05-10T14:32:05;8.48;;;7.20;;
22024;SDS011;11176;51.448;6.650;2023-05-10T14:34:32;11.70;;;9.48;;
22024;SDS011;11176;51.448;6.650;2023-05-10T14:36:59;9.00;;;7.60;;
22024;SDS011;11176;51.448;6.650;2023-05-10T14:39:25;10.75;;;8.57;;
22024;SDS011;11176;51.448;6.650;2023-05-10T14:41:55;13.25;;;9.48;;
22024;SDS011;11176;51.448;6.650;2023-05-10T14:44:22;13.20;;;9.63;;
22024;SDS011;11176;51.448;6.650;2023-05-10T14:46:49;9.73;;;8.60;;
22024;SDS011;11176;51.448;6.650;2023-05-10T14:49:16;13.23;;;7.90;;
22024;SDS011;11176;51.448;6.650;2023-05-10T14:51:43;9.15;;;7.40;;
22024;SDS011;11176;51.448;6.650;2023-05-10T14:54:11;10.43;;;7.93;;